Hawk — LAGF7 — position and weather

sailwx.info

Track history (hours):
 
Tides and Currents Weather Stations Pressure Air Temp Water Temp Dewpoint Dewpoint Depression Visibility Wind Speed Wind Dir Waves Ship Positions

Hawk

Last reported at 2014-Dec-21 11:33 UTC. Time now 2014-Dec-22 12:45 UTC.
Position N 24°33' E 119°17'.

Length 223 m; draft 10.6 m.

Type: Cargo ship. MMSI: 259848000.

Date/timePositionNaut miles runAvg speedWind from/ knotsBaromVisibWave heightAir tempDewpointWater temp
2014-Dec-21 11:33N 24°33' E 119°17'1610.8
2014-Dec-21 10:05N 24°24' E 119°03'45 9.5
2014-Dec-21 05:18N 23°57' E 118°23'8 9.1
2014-Dec-21 04:28N 23°52' E 118°16'19 9.2
2014-Dec-21 02:22N 23°40' E 117°59'  
2014-Dec-12 18:13N 01°16' E 104°13'710.1
2014-Dec-12 17:33N 01°15' E 104°06'9 9.0
2014-Dec-12 16:33N 01°15' E 103°57'3 2.7
2014-Dec-12 15:26N 01°16' E 103°54'0 0.0
2014-Dec-12 14:32N 01°16' E 103°54'0 0.2
2014-Dec-12 13:32N 01°16' E 103°54'0 0.0
2014-Dec-12 12:32N 01°16' E 103°54'0 0.0
2014-Dec-12 11:29N 01°16' E 103°54'0 0.0
2014-Dec-12 10:14N 01°16' E 103°54'0 0.0
2014-Dec-12 09:20N 01°16' E 103°54'0 0.0
2014-Dec-12 08:32N 01°16' E 103°54'0 0.1
2014-Dec-12 07:32N 01°16' E 103°54'0 0.1
2014-Dec-12 06:32N 01°16' E 103°54'0 0.0
2014-Dec-12 05:32N 01°16' E 103°54'0 0.0
2014-Dec-12 04:32N 01°16' E 103°54'0 0.0
2014-Dec-12 03:17N 01°16' E 103°54'0 0.0
2014-Dec-12 02:32N 01°16' E 103°54'0 0.0
2014-Dec-12 01:32N 01°16' E 103°54'0 0.0
2014-Dec-11 22:20N 01°16' E 103°54'0 0.0
2014-Dec-11 21:32N 01°16' E 103°54'0 0.0
2014-Dec-11 20:32N 01°16' E 103°54'0 0.0
2014-Dec-11 19:26N 01°16' E 103°54'0 0.0
2014-Dec-11 18:20N 01°16' E 103°54'0 0.0
2014-Dec-11 17:32N 01°16' E 103°54'0 0.0
2014-Dec-11 16:32N 01°16' E 103°54'0 0.0
2014-Dec-11 15:29N 01°16' E 103°54'0 0.0
2014-Dec-11 14:20N 01°16' E 103°54'0 0.1
2014-Dec-11 13:32N 01°16' E 103°54'0 0.1
2014-Dec-11 12:29N 01°16' E 103°54'  
Track history (hours):
 
Tides and Currents Weather Stations Pressure Air Temp Water Temp Dewpoint Dewpoint Depression Visibility Wind Speed Wind Dir Waves Ship Positions

Hawk

Last reported at 2014-Dec-21 11:33 UTC. Time now 2014-Dec-22 12:45 UTC.
Position N 24°33' E 119°17'.

Length 223 m; draft 10.6 m.

Type: Cargo ship. MMSI: 259848000.

Date/timePositionNaut miles runAvg speedWind from/ knotsBaromVisibWave heightAir tempDewpointWater temp
2014-Dec-21 11:33N 24°33' E 119°17'1610.8
2014-Dec-21 10:05N 24°24' E 119°03'45 9.5
2014-Dec-21 05:18N 23°57' E 118°23'8 9.1
2014-Dec-21 04:28N 23°52' E 118°16'19 9.2
2014-Dec-21 02:22N 23°40' E 117°59'  
2014-Dec-12 18:13N 01°16' E 104°13'710.1
2014-Dec-12 17:33N 01°15' E 104°06'9 9.0
2014-Dec-12 16:33N 01°15' E 103°57'3 2.7
2014-Dec-12 15:26N 01°16' E 103°54'0 0.0
2014-Dec-12 14:32N 01°16' E 103°54'0 0.2
2014-Dec-12 13:32N 01°16' E 103°54'0 0.0
2014-Dec-12 12:32N 01°16' E 103°54'0 0.0
2014-Dec-12 11:29N 01°16' E 103°54'0 0.0
2014-Dec-12 10:14N 01°16' E 103°54'0 0.0
2014-Dec-12 09:20N 01°16' E 103°54'0 0.0
2014-Dec-12 08:32N 01°16' E 103°54'0 0.1
2014-Dec-12 07:32N 01°16' E 103°54'0 0.1
2014-Dec-12 06:32N 01°16' E 103°54'0 0.0
2014-Dec-12 05:32N 01°16' E 103°54'0 0.0
2014-Dec-12 04:32N 01°16' E 103°54'0 0.0
2014-Dec-12 03:17N 01°16' E 103°54'0 0.0
2014-Dec-12 02:32N 01°16' E 103°54'0 0.0
2014-Dec-12 01:32N 01°16' E 103°54'0 0.0
2014-Dec-11 22:20N 01°16' E 103°54'0 0.0
2014-Dec-11 21:32N 01°16' E 103°54'0 0.0
2014-Dec-11 20:32N 01°16' E 103°54'0 0.0
2014-Dec-11 19:26N 01°16' E 103°54'0 0.0
2014-Dec-11 18:20N 01°16' E 103°54'0 0.0
2014-Dec-11 17:32N 01°16' E 103°54'0 0.0
2014-Dec-11 16:32N 01°16' E 103°54'0 0.0
2014-Dec-11 15:29N 01°16' E 103°54'0 0.0
2014-Dec-11 14:20N 01°16' E 103°54'0 0.1
2014-Dec-11 13:32N 01°16' E 103°54'0 0.1
2014-Dec-11 12:29N 01°16' E 103°54'  

Dump ship's entire track history